sensor_id;sensor_type;location;lat;lon;timestamp;temperature;humidity
19363;DHT22;9817;50.80926400;5.16316200;2023-05-10T00:01:05;15.10;99.90
19363;DHT22;9817;50.80926400;5.16316200;2023-05-10T00:03:31;15.10;99.90
19363;DHT22;9817;50.80926400;5.16316200;2023-05-10T00:05:57;15.00;99.90
19363;DHT22;9817;50.80926400;5.16316200;2023-05-10T00:08:22;15.00;99.90
19363;DHT22;9817;50.80926400;5.16316200;2023-05-10T00:10:48;15.00;99.90
19363;DHT22;9817;50.80926400;5.16316200;2023-05-10T00:13:14;15.10;99.90
19363;DHT22;9817;50.80926400;5.16316200;2023-05-10T00:15:40;15.10;99.90
19363;DHT22;9817;50.80926400;5.16316200;2023-05-10T00:18:06;15.10;99.90
19363;DHT22;9817;50.80926400;5.16316200;2023-05-10T00:20:31;15.10;99.90
19363;DHT22;9817;50.80926400;5.16316200;2023-05-10T00:22:57;15.10;99.90
19363;DHT22;9817;50.80926400;5.16316200;2023-05-10T00:25:23;15.10;99.90
19363;DHT22;9817;50.80926400;5.16316200;2023-05-10T00:27:48;15.10;99.90
19363;DHT22;9817;50.80926400;5.16316200;2023-05-10T00:30:15;15.10;99.90
19363;DHT22;9817;50.80926400;5.16316200;2023-05-10T00:32:40;15.10;99.90
19363;DHT22;9817;50.80926400;5.16316200;2023-05-10T00:35:06;15.10;99.90
19363;DHT22;9817;50.80926400;5.16316200;2023-05-10T00:37:32;15.00;99.90
19363;DHT22;9817;50.80926400;5.16316200;2023-05-10T00:39:58;15.00;99.90
19363;DHT22;9817;50.80926400;5.16316200;2023-05-10T00:42:24;15.10;99.90
19363;DHT22;9817;50.80926400;5.16316200;2023-05-10T00:44:49;15.10;99.90
19363;DHT22;9817;50.80926400;5.16316200;2023-05-10T00:47:15;15.20;99.90
19363;DHT22;9817;50.80926400;5.16316200;2023-05-10T00:49:42;15.20;99.90
19363;DHT22;9817;50.80926400;5.16316200;2023-05-10T00:52:08;15.30;99.90
19363;DHT22;9817;50.80926400;5.16316200;2023-05-10T00:54:34;15.20;99.90
19363;DHT22;9817;50.80926400;5.16316200;2023-05-10T00:57:00;15.20;99.90
19363;DHT22;9817;50.80926400;5.16316200;2023-05-10T00:59:25;15.10;99.90
19363;DHT22;9817;50.80926400;5.16316200;2023-05-10T01:01:52;15.00;99.90
19363;DHT22;9817;50.80926400;5.16316200;2023-05-10T01:04:18;15.00;99.90
19363;DHT22;9817;50.80926400;5.16316200;2023-05-10T01:06:45;15.00;99.90
19363;DHT22;9817;50.80926400;5.16316200;2023-05-10T01:09:11;14.90;99.90
19363;DHT22;9817;50.80926400;5.16316200;2023-05-10T01:11:38;14.90;99.90
19363;DHT22;9817;50.80926400;5.16316200;2023-05-10T01:14:05;14.80;99.90
19363;DHT22;9817;50.80926400;5.16316200;2023-05-10T01:16:36;14.80;99.90
19363;DHT22;9817;50.80926400;5.16316200;2023-05-10T01:19:21;14.80;99.90
19363;DHT22;9817;50.80926400;5.16316200;2023-05-10T01:27:20;14.70;99.90
19363;DHT22;9817;50.80926400;5.16316200;2023-05-10T01:32:47;14.80;99.90
19363;DHT22;9817;50.80926400;5.16316200;2023-05-10T01:38:29;14.60;99.90
19363;DHT22;9817;50.80926400;5.16316200;2023-05-10T01:44:33;14.50;99.90
19363;DHT22;9817;50.80926400;5.16316200;2023-05-10T01:46:40;14.60;99.90
19363;DHT22;9817;50.80926400;5.16316200;2023-05-10T01:49:23;14.60;99.90
19363;DHT22;9817;50.80926400;5.16316200;2023-05-10T01:51:53;14.70;99.90
19363;DHT22;9817;50.80926400;5.16316200;2023-05-10T01:54:21;14.80;99.90
19363;DHT22;9817;50.80926400;5.16316200;2023-05-10T01:56:55;14.70;99.90
19363;DHT22;9817;50.80926400;5.16316200;2023-05-10T01:59:21;14.70;99.90
19363;DHT22;9817;50.80926400;5.16316200;2023-05-10T02:01:48;14.70;99.90
19363;DHT22;9817;50.80926400;5.16316200;2023-05-10T02:04:17;14.70;99.90
19363;DHT22;9817;50.80926400;5.16316200;2023-05-10T02:06:45;14.60;99.90
19363;DHT22;9817;50.80926400;5.16316200;2023-05-10T02:09:13;14.70;99.90
19363;DHT22;9817;50.80926400;5.16316200;2023-05-10T02:11:40;14.80;99.90
19363;DHT22;9817;50.80926400;5.16316200;2023-05-10T02:14:09;14.70;99.90
19363;DHT22;9817;50.80926400;5.16316200;2023-05-10T02:16:35;14.70;99.90
19363;DHT22;9817;50.80926400;5.16316200;2023-05-10T02:19:02;14.60;99.90
19363;DHT22;9817;50.80926400;5.16316200;2023-05-10T02:21:29;14.60;99.90
19363;DHT22;9817;50.80926400;5.16316200;2023-05-10T02:23:57;14.60;99.90
19363;DHT22;9817;50.80926400;5.16316200;2023-05-10T02:26:24;14.50;99.90
19363;DHT22;9817;50.80926400;5.16316200;2023-05-10T02:28:52;14.60;99.90
19363;DHT22;9817;50.80926400;5.16316200;2023-05-10T02:31:19;14.60;99.90
19363;DHT22;9817;50.80926400;5.16316200;2023-05-10T02:33:46;14.60;99.90
19363;DHT22;9817;50.80926400;5.16316200;2023-05-10T02:36:13;14.60;99.90
19363;DHT22;9817;50.80926400;5.16316200;2023-05-10T02:38:40;14.60;99.90
19363;DHT22;9817;50.80926400;5.16316200;2023-05-10T02:41:08;14.40;99.90
19363;DHT22;9817;50.80926400;5.16316200;2023-05-10T02:43:36;14.40;99.90
19363;DHT22;9817;50.80926400;5.16316200;2023-05-10T02:46:03;14.40;99.90
19363;DHT22;9817;50.80926400;5.16316200;2023-05-10T02:48:29;14.50;99.90
19363;DHT22;9817;50.80926400;5.16316200;2023-05-10T02:50:59;14.70;99.90
19363;DHT22;9817;50.80926400;5.16316200;2023-05-10T02:53:31;14.70;99.90
19363;DHT22;9817;50.80926400;5.16316200;2023-05-10T02:56:00;14.50;99.90
19363;DHT22;9817;50.80926400;5.16316200;2023-05-10T02:58:27;14.50;99.90
19363;DHT22;9817;50.80926400;5.16316200;2023-05-10T03:00:52;14.50;99.90
19363;DHT22;9817;50.80926400;5.16316200;2023-05-10T03:03:19;14.40;99.90
19363;DHT22;9817;50.80926400;5.16316200;2023-05-10T03:05:45;14.50;99.90
19363;DHT22;9817;50.80926400;5.16316200;2023-05-10T03:08:11;14.60;99.90
19363;DHT22;9817;50.80926400;5.16316200;2023-05-10T03:10:44;14.50;99.90
19363;DHT22;9817;50.80926400;5.16316200;2023-05-10T03:16:03;14.50;99.90
19363;DHT22;9817;50.80926400;5.16316200;2023-05-10T03:19:03;14.50;99.90
19363;DHT22;9817;50.80926400;5.16316200;2023-05-10T03:21:31;14.60;99.90
19363;DHT22;9817;50.80926400;5.16316200;2023-05-10T03:24:07;14.80;99.90
19363;DHT22;9817;50.80926400;5.16316200;2023-05-10T03:26:34;14.80;99.90
19363;DHT22;9817;50.80926400;5.16316200;2023-05-10T03:29:00;14.80;99.90
19363;DHT22;9817;50.80926400;5.16316200;2023-05-10T03:31:26;14.90;99.90
19363;DHT22;9817;50.80926400;5.16316200;2023-05-10T03:33:52;14.80;99.90
19363;DHT22;9817;50.80926400;5.16316200;2023-05-10T03:36:19;14.90;99.90
19363;DHT22;9817;50.80926400;5.16316200;2023-05-10T03:38:44;14.90;99.90
19363;DHT22;9817;50.80926400;5.16316200;2023-05-10T03:41:10;14.90;99.90
19363;DHT22;9817;50.80926400;5.16316200;2023-05-10T03:43:36;14.90;99.90
19363;DHT22;9817;50.80926400;5.16316200;2023-05-10T03:46:05;14.90;99.90
19363;DHT22;9817;50.80926400;5.16316200;2023-05-10T03:48:32;14.90;99.90
19363;DHT22;9817;50.80926400;5.16316200;2023-05-10T03:50:58;15.00;99.90
19363;DHT22;9817;50.80926400;5.16316200;2023-05-10T03:53:24;14.90;99.90
19363;DHT22;9817;50.80926400;5.16316200;2023-05-10T03:55:50;15.00;99.90
19363;DHT22;9817;50.80926400;5.16316200;2023-05-10T03:58:16;15.10;99.90
19363;DHT22;9817;50.80926400;5.16316200;2023-05-10T04:00:42;15.20;99.90
19363;DHT22;9817;50.80926400;5.16316200;2023-05-10T04:03:13;15.10;99.90
19363;DHT22;9817;50.80926400;5.16316200;2023-05-10T04:05:39;15.00;99.90
19363;DHT22;9817;50.80926400;5.16316200;2023-05-10T04:08:05;14.90;99.90
19363;DHT22;9817;50.80926400;5.16316200;2023-05-10T04:10:31;15.00;99.90
19363;DHT22;9817;50.80926400;5.16316200;2023-05-10T04:12:57;14.80;99.90
19363;DHT22;9817;50.80926400;5.16316200;2023-05-10T04:15:22;14.80;99.90
19363;DHT22;9817;50.80926400;5.16316200;2023-05-10T04:17:48;14.90;99.90
19363;DHT22;9817;50.80926400;5.16316200;2023-05-10T04:20:14;14.70;99.90
19363;DHT22;9817;50.80926400;5.16316200;2023-05-10T04:22:40;14.70;99.90
19363;DHT22;9817;50.80926400;5.16316200;2023-05-10T04:25:06;14.60;99.90
19363;DHT22;9817;50.80926400;5.16316200;2023-05-10T04:27:32;14.60;99.90
19363;DHT22;9817;50.80926400;5.16316200;2023-05-10T04:29:58;14.60;99.90
19363;DHT22;9817;50.80926400;5.16316200;2023-05-10T04:32:24;14.50;99.90
19363;DHT22;9817;50.80926400;5.16316200;2023-05-10T04:34:50;14.50;99.90
19363;DHT22;9817;50.80926400;5.16316200;2023-05-10T04:37:16;14.30;99.90
19363;DHT22;9817;50.80926400;5.16316200;2023-05-10T04:39:42;14.20;99.90
19363;DHT22;9817;50.80926400;5.16316200;2023-05-10T04:42:08;14.10;99.90
19363;DHT22;9817;50.80926400;5.16316200;2023-05-10T04:44:34;14.20;99.90
19363;DHT22;9817;50.80926400;5.16316200;2023-05-10T04:46:59;14.00;99.90
19363;DHT22;9817;50.80926400;5.16316200;2023-05-10T04:49:25;14.00;99.90
19363;DHT22;9817;50.80926400;5.16316200;2023-05-10T04:51:51;14.00;99.90
19363;DHT22;9817;50.80926400;5.16316200;2023-05-10T04:54:16;14.10;99.90
19363;DHT22;9817;50.80926400;5.16316200;2023-05-10T04:56:42;14.10;99.90
19363;DHT22;9817;50.80926400;5.16316200;2023-05-10T04:59:08;14.10;99.90
19363;DHT22;9817;50.80926400;5.16316200;2023-05-10T05:01:33;14.30;99.90
19363;DHT22;9817;50.80926400;5.16316200;2023-05-10T05:04:00;14.30;99.90
19363;DHT22;9817;50.80926400;5.16316200;2023-05-10T05:06:25;14.40;99.90
19363;DHT22;9817;50.80926400;5.16316200;2023-05-10T05:08:52;14.40;99.90
19363;DHT22;9817;50.80926400;5.16316200;2023-05-10T05:11:18;14.30;99.90
19363;DHT22;9817;50.80926400;5.16316200;2023-05-10T05:13:43;14.40;99.90
19363;DHT22;9817;50.80926400;5.16316200;2023-05-10T05:16:09;14.30;99.90
19363;DHT22;9817;50.80926400;5.16316200;2023-05-10T05:18:36;14.40;99.90
19363;DHT22;9817;50.80926400;5.16316200;2023-05-10T05:21:02;14.40;99.90
19363;DHT22;9817;50.80926400;5.16316200;2023-05-10T05:23:27;14.50;99.90
19363;DHT22;9817;50.80926400;5.16316200;2023-05-10T05:25:54;14.50;99.90
19363;DHT22;9817;50.80926400;5.16316200;2023-05-10T05:28:22;14.50;99.90
19363;DHT22;9817;50.80926400;5.16316200;2023-05-10T05:30:48;14.60;99.90
19363;DHT22;9817;50.80926400;5.16316200;2023-05-10T05:33:14;14.50;99.90
19363;DHT22;9817;50.80926400;5.16316200;2023-05-10T05:35:41;14.50;99.90
19363;DHT22;9817;50.80926400;5.16316200;2023-05-10T05:38:08;14.60;99.90
19363;DHT22;9817;50.80926400;5.16316200;2023-05-10T05:40:34;14.70;99.90
19363;DHT22;9817;50.80926400;5.16316200;2023-05-10T05:42:59;14.60;99.90
19363;DHT22;9817;50.80926400;5.16316200;2023-05-10T05:45:25;14.70;99.90
19363;DHT22;9817;50.80926400;5.16316200;2023-05-10T05:47:50;14.70;99.90
19363;DHT22;9817;50.80926400;5.16316200;2023-05-10T05:50:16;14.70;99.90
19363;DHT22;9817;50.80926400;5.16316200;2023-05-10T05:52:42;14.70;99.90
19363;DHT22;9817;50.80926400;5.16316200;2023-05-10T05:55:07;14.60;99.90
19363;DHT22;9817;50.80926400;5.16316200;2023-05-10T05:57:33;14.70;99.90
19363;DHT22;9817;50.80926400;5.16316200;2023-05-10T05:59:59;14.60;99.90
19363;DHT22;9817;50.80926400;5.16316200;2023-05-10T06:02:24;14.50;99.90
19363;DHT22;9817;50.80926400;5.16316200;2023-05-10T06:04:50;14.50;99.90
19363;DHT22;9817;50.80926400;5.16316200;2023-05-10T06:07:16;14.50;99.90
19363;DHT22;9817;50.80926400;5.16316200;2023-05-10T06:09:41;14.50;99.90
19363;DHT22;9817;50.80926400;5.16316200;2023-05-10T06:12:07;14.40;99.90
19363;DHT22;9817;50.80926400;5.16316200;2023-05-10T06:14:33;14.40;99.90
19363;DHT22;9817;50.80926400;5.16316200;2023-05-10T06:16:58;14.40;99.90
19363;DHT22;9817;50.80926400;5.16316200;2023-05-10T06:19:25;14.50;99.90
19363;DHT22;9817;50.80926400;5.16316200;2023-05-10T06:21:51;14.60;99.90
19363;DHT22;9817;50.80926400;5.16316200;2023-05-10T06:24:17;14.60;99.90
19363;DHT22;9817;50.80926400;5.16316200;2023-05-10T06:26:43;14.60;99.90
19363;DHT22;9817;50.80926400;5.16316200;2023-05-10T06:29:08;14.60;99.90
19363;DHT22;9817;50.80926400;5.16316200;2023-05-10T06:31:34;14.60;99.90
19363;DHT22;9817;50.80926400;5.16316200;2023-05-10T06:34:00;14.70;99.90
19363;DHT22;9817;50.80926400;5.16316200;2023-05-10T06:36:25;14.80;99.90
19363;DHT22;9817;50.80926400;5.16316200;2023-05-10T06:38:52;14.80;99.90
19363;DHT22;9817;50.80926400;5.16316200;2023-05-10T06:41:18;15.00;99.90
19363;DHT22;9817;50.80926400;5.16316200;2023-05-10T06:43:43;14.90;99.90
19363;DHT22;9817;50.80926400;5.16316200;2023-05-10T06:46:09;14.80;99.90
19363;DHT22;9817;50.80926400;5.16316200;2023-05-10T06:48:35;14.90;99.90
19363;DHT22;9817;50.80926400;5.16316200;2023-05-10T06:51:00;14.80;99.90
19363;DHT22;9817;50.80926400;5.16316200;2023-05-10T06:53:26;14.70;99.90
19363;DHT22;9817;50.80926400;5.16316200;2023-05-10T06:55:52;14.80;99.90
19363;DHT22;9817;50.80926400;5.16316200;2023-05-10T06:58:18;14.80;99.90
19363;DHT22;9817;50.80926400;5.16316200;2023-05-10T07:00:44;14.80;99.90
19363;DHT22;9817;50.80926400;5.16316200;2023-05-10T07:03:10;14.70;99.90
19363;DHT22;9817;50.80926400;5.16316200;2023-05-10T07:05:36;14.80;99.90
19363;DHT22;9817;50.80926400;5.16316200;2023-05-10T07:08:02;14.80;99.90
19363;DHT22;9817;50.80926400;5.16316200;2023-05-10T07:10:27;14.60;99.90
19363;DHT22;9817;50.80926400;5.16316200;2023-05-10T07:12:53;14.60;99.90
19363;DHT22;9817;50.80926400;5.16316200;2023-05-10T07:15:19;14.50;99.90
19363;DHT22;9817;50.80926400;5.16316200;2023-05-10T07:17:45;14.30;99.90
19363;DHT22;9817;50.80926400;5.16316200;2023-05-10T07:20:11;14.20;99.90
19363;DHT22;9817;50.80926400;5.16316200;2023-05-10T07:22:36;14.10;99.90
19363;DHT22;9817;50.80926400;5.16316200;2023-05-10T07:25:02;14.10;99.90
19363;DHT22;9817;50.80926400;5.16316200;2023-05-10T07:27:28;14.20;99.90
19363;DHT22;9817;50.80926400;5.16316200;2023-05-10T07:29:54;14.20;99.90
19363;DHT22;9817;50.80926400;5.16316200;2023-05-10T07:32:20;14.00;99.90
19363;DHT22;9817;50.80926400;5.16316200;2023-05-10T07:34:46;13.80;99.90
19363;DHT22;9817;50.80926400;5.16316200;2023-05-10T07:37:12;13.70;99.90
19363;DHT22;9817;50.80926400;5.16316200;2023-05-10T07:39:38;13.70;99.90
19363;DHT22;9817;50.80926400;5.16316200;2023-05-10T07:42:03;13.70;99.90
19363;DHT22;9817;50.80926400;5.16316200;2023-05-10T07:44:29;13.70;99.90
19363;DHT22;9817;50.80926400;5.16316200;2023-05-10T07:46:55;13.80;99.90
19363;DHT22;9817;50.80926400;5.16316200;2023-05-10T07:49:21;13.80;99.90
19363;DHT22;9817;50.80926400;5.16316200;2023-05-10T07:51:47;14.00;99.90
19363;DHT22;9817;50.80926400;5.16316200;2023-05-10T07:54:14;14.00;99.90
19363;DHT22;9817;50.80926400;5.16316200;2023-05-10T07:56:39;13.90;99.90
19363;DHT22;9817;50.80926400;5.16316200;2023-05-10T07:59:10;13.90;99.90
19363;DHT22;9817;50.80926400;5.16316200;2023-05-10T08:01:35;14.10;99.90
19363;DHT22;9817;50.80926400;5.16316200;2023-05-10T08:04:01;14.00;99.90
19363;DHT22;9817;50.80926400;5.16316200;2023-05-10T08:06:27;14.10;99.90
19363;DHT22;9817;50.80926400;5.16316200;2023-05-10T08:08:55;14.00;99.90
19363;DHT22;9817;50.80926400;5.16316200;2023-05-10T08:11:21;14.00;99.90
19363;DHT22;9817;50.80926400;5.16316200;2023-05-10T08:13:48;14.00;99.90
19363;DHT22;9817;50.80926400;5.16316200;2023-05-10T08:16:14;14.00;99.90
19363;DHT22;9817;50.80926400;5.16316200;2023-05-10T08:18:40;14.10;99.90
19363;DHT22;9817;50.80926400;5.16316200;2023-05-10T08:21:06;14.20;99.90
19363;DHT22;9817;50.80926400;5.16316200;2023-05-10T08:23:32;14.10;99.90
19363;DHT22;9817;50.80926400;5.16316200;2023-05-10T08:25:57;14.20;99.90
19363;DHT22;9817;50.80926400;5.16316200;2023-05-10T08:28:23;14.20;99.90
19363;DHT22;9817;50.80926400;5.16316200;2023-05-10T08:30:50;14.30;99.90
19363;DHT22;9817;50.80926400;5.16316200;2023-05-10T08:33:17;14.50;99.90
19363;DHT22;9817;50.80926400;5.16316200;2023-05-10T08:35:43;14.50;99.90
19363;DHT22;9817;50.80926400;5.16316200;2023-05-10T08:38:09;14.60;99.90
19363;DHT22;9817;50.80926400;5.16316200;2023-05-10T08:40:35;14.60;99.90
19363;DHT22;9817;50.80926400;5.16316200;2023-05-10T08:43:07;14.60;99.90
19363;DHT22;9817;50.80926400;5.16316200;2023-05-10T08:45:37;14.50;99.90
19363;DHT22;9817;50.80926400;5.16316200;2023-05-10T08:48:06;14.80;99.90
19363;DHT22;9817;50.80926400;5.16316200;2023-05-10T08:50:37;15.00;99.90
19363;DHT22;9817;50.80926400;5.16316200;2023-05-10T08:53:11;15.10;99.90
19363;DHT22;9817;50.80926400;5.16316200;2023-05-10T08:55:38;15.20;99.90
19363;DHT22;9817;50.80926400;5.16316200;2023-05-10T08:58:07;15.30;99.90
19363;DHT22;9817;50.80926400;5.16316200;2023-05-10T09:00:33;15.00;99.90
19363;DHT22;9817;50.80926400;5.16316200;2023-05-10T09:02:59;14.90;99.90
19363;DHT22;9817;50.80926400;5.16316200;2023-05-10T09:05:25;15.20;99.90
19363;DHT22;9817;50.80926400;5.16316200;2023-05-10T09:07:51;15.50;99.90
19363;DHT22;9817;50.80926400;5.16316200;2023-05-10T09:10:17;15.80;99.90
19363;DHT22;9817;50.80926400;5.16316200;2023-05-10T09:12:44;15.70;99.90
19363;DHT22;9817;50.80926400;5.16316200;2023-05-10T09:15:11;15.80;99.90
19363;DHT22;9817;50.80926400;5.16316200;2023-05-10T09:17:38;15.90;99.90
19363;DHT22;9817;50.80926400;5.16316200;2023-05-10T09:20:06;16.10;99.90
19363;DHT22;9817;50.80926400;5.16316200;2023-05-10T09:22:33;16.20;99.90
19363;DHT22;9817;50.80926400;5.16316200;2023-05-10T09:25:08;16.10;99.90
19363;DHT22;9817;50.80926400;5.16316200;2023-05-10T09:27:35;16.30;99.90
19363;DHT22;9817;50.80926400;5.16316200;2023-05-10T09:30:01;16.00;99.90
19363;DHT22;9817;50.80926400;5.16316200;2023-05-10T09:32:48;15.80;99.90
19363;DHT22;9817;50.80926400;5.16316200;2023-05-10T09:35:18;15.80;99.90
19363;DHT22;9817;50.80926400;5.16316200;2023-05-10T09:37:49;15.90;99.90
19363;DHT22;9817;50.80926400;5.16316200;2023-05-10T09:40:17;15.80;99.90
19363;DHT22;9817;50.80926400;5.16316200;2023-05-10T09:42:57;16.00;99.90
19363;DHT22;9817;50.80926400;5.16316200;2023-05-10T09:45:24;16.10;99.90
19363;DHT22;9817;50.80926400;5.16316200;2023-05-10T09:47:50;16.20;99.90
19363;DHT22;9817;50.80926400;5.16316200;2023-05-10T09:50:16;16.40;99.90
19363;DHT22;9817;50.80926400;5.16316200;2023-05-10T09:52:56;16.40;99.90
19363;DHT22;9817;50.80926400;5.16316200;2023-05-10T09:55:37;16.20;99.90
19363;DHT22;9817;50.80926400;5.16316200;2023-05-10T09:58:03;16.40;99.90
19363;DHT22;9817;50.80926400;5.16316200;2023-05-10T10:00:35;16.40;99.90
19363;DHT22;9817;50.80926400;5.16316200;2023-05-10T10:03:02;16.50;99.90
19363;DHT22;9817;50.80926400;5.16316200;2023-05-10T10:05:33;16.60;99.90
19363;DHT22;9817;50.80926400;5.16316200;2023-05-10T10:08:00;16.70;99.90
19363;DHT22;9817;50.80926400;5.16316200;2023-05-10T10:10:27;16.30;99.90
19363;DHT22;9817;50.80926400;5.16316200;2023-05-10T10:12:54;16.20;99.90
19363;DHT22;9817;50.80926400;5.16316200;2023-05-10T10:15:23;16.00;99.90
19363;DHT22;9817;50.80926400;5.16316200;2023-05-10T10:17:50;16.20;99.90
19363;DHT22;9817;50.80926400;5.16316200;2023-05-10T10:20:17;16.30;99.90
19363;DHT22;9817;50.80926400;5.16316200;2023-05-10T10:22:43;16.40;99.90
19363;DHT22;9817;50.80926400;5.16316200;2023-05-10T10:25:10;15.90;99.90
19363;DHT22;9817;50.80926400;5.16316200;2023-05-10T10:30:37;15.70;99.90
19363;DHT22;9817;50.80926400;5.16316200;2023-05-10T10:33:40;15.70;99.90
19363;DHT22;9817;50.80926400;5.16316200;2023-05-10T10:36:09;15.80;99.90
19363;DHT22;9817;50.80926400;5.16316200;2023-05-10T10:49:48;16.00;99.90
19363;DHT22;9817;50.80926400;5.16316200;2023-05-10T10:54:59;16.10;99.90
19363;DHT22;9817;50.80926400;5.16316200;2023-05-10T10:57:26;16.40;99.90
19363;DHT22;9817;50.80926400;5.16316200;2023-05-10T11:02:44;16.90;99.90
19363;DHT22;9817;50.80926400;5.16316200;2023-05-10T11:08:17;17.40;99.90
19363;DHT22;9817;50.80926400;5.16316200;2023-05-10T11:13:34;17.50;99.90
19363;DHT22;9817;50.80926400;5.16316200;2023-05-10T11:16:21;17.70;99.90
19363;DHT22;9817;50.80926400;5.16316200;2023-05-10T11:21:18;18.10;99.90
19363;DHT22;9817;50.80926400;5.16316200;2023-05-10T11:23:54;18.00;99.90
19363;DHT22;9817;50.80926400;5.16316200;2023-05-10T11:26:30;18.20;99.90
19363;DHT22;9817;50.80926400;5.16316200;2023-05-10T11:28:56;18.50;99.90
19363;DHT22;9817;50.80926400;5.16316200;2023-05-10T11:31:24;18.60;99.90
19363;DHT22;9817;50.80926400;5.16316200;2023-05-10T11:33:54;18.80;99.90
19363;DHT22;9817;50.80926400;5.16316200;2023-05-10T11:36:28;19.10;99.90
19363;DHT22;9817;50.80926400;5.16316200;2023-05-10T11:38:55;19.30;99.90
19363;DHT22;9817;50.80926400;5.16316200;2023-05-10T11:41:22;19.30;99.90
19363;DHT22;9817;50.80926400;5.16316200;2023-05-10T11:43:50;19.50;99.90
19363;DHT22;9817;50.80926400;5.16316200;2023-05-10T11:46:19;19.50;99.90
19363;DHT22;9817;50.80926400;5.16316200;2023-05-10T11:48:50;19.20;99.90
19363;DHT22;9817;50.80926400;5.16316200;2023-05-10T11:51:23;19.30;99.90
19363;DHT22;9817;50.80926400;5.16316200;2023-05-10T11:53:52;19.00;99.90
19363;DHT22;9817;50.80926400;5.16316200;2023-05-10T11:56:17;18.70;99.90
19363;DHT22;9817;50.80926400;5.16316200;2023-05-10T11:58:43;18.50;99.90
19363;DHT22;9817;50.80926400;5.16316200;2023-05-10T12:01:09;18.30;99.90
19363;DHT22;9817;50.80926400;5.16316200;2023-05-10T12:03:36;18.20;99.90
19363;DHT22;9817;50.80926400;5.16316200;2023-05-10T12:06:02;18.20;99.90
19363;DHT22;9817;50.80926400;5.16316200;2023-05-10T12:08:29;18.30;99.90
19363;DHT22;9817;50.80926400;5.16316200;2023-05-10T12:11:06;18.10;99.90
19363;DHT22;9817;50.80926400;5.16316200;2023-05-10T12:13:38;18.20;99.90
19363;DHT22;9817;50.80926400;5.16316200;2023-05-10T12:16:18;18.30;99.90
19363;DHT22;9817;50.80926400;5.16316200;2023-05-10T12:18:45;18.20;99.90
19363;DHT22;9817;50.80926400;5.16316200;2023-05-10T12:21:11;18.30;99.90
19363;DHT22;9817;50.80926400;5.16316200;2023-05-10T12:23:40;18.00;99.90
19363;DHT22;9817;50.80926400;5.16316200;2023-05-10T12:26:08;17.80;99.90
19363;DHT22;9817;50.80926400;5.16316200;2023-05-10T12:28:34;18.20;99.90
19363;DHT22;9817;50.80926400;5.16316200;2023-05-10T12:31:01;18.70;99.90
19363;DHT22;9817;50.80926400;5.16316200;2023-05-10T12:33:35;19.00;99.90
19363;DHT22;9817;50.80926400;5.16316200;2023-05-10T12:36:02;19.30;99.90
19363;DHT22;9817;50.80926400;5.16316200;2023-05-10T12:38:36;19.10;99.90
19363;DHT22;9817;50.80926400;5.16316200;2023-05-10T12:41:08;19.00;99.90
19363;DHT22;9817;50.80926400;5.16316200;2023-05-10T12:43:35;18.70;99.90
19363;DHT22;9817;50.80926400;5.16316200;2023-05-10T12:46:15;18.40;99.90
19363;DHT22;9817;50.80926400;5.16316200;2023-05-10T12:48:42;18.30;99.90
19363;DHT22;9817;50.80926400;5.16316200;2023-05-10T12:51:08;18.30;99.90
19363;DHT22;9817;50.80926400;5.16316200;2023-05-10T12:53:35;18.00;99.90
19363;DHT22;9817;50.80926400;5.16316200;2023-05-10T12:56:02;18.30;99.90
19363;DHT22;9817;50.80926400;5.16316200;2023-05-10T12:58:27;18.50;99.90
19363;DHT22;9817;50.80926400;5.16316200;2023-05-10T13:00:53;18.60;99.90
19363;DHT22;9817;50.80926400;5.16316200;2023-05-10T13:03:19;18.60;99.90
19363;DHT22;9817;50.80926400;5.16316200;2023-05-10T13:05:45;18.50;99.90
19363;DHT22;9817;50.80926400;5.16316200;2023-05-10T13:08:10;18.60;99.90
19363;DHT22;9817;50.80926400;5.16316200;2023-05-10T13:10:36;18.40;99.90
19363;DHT22;9817;50.80926400;5.16316200;2023-05-10T13:13:02;18.40;99.90
19363;DHT22;9817;50.80926400;5.16316200;2023-05-10T13:15:28;18.70;99.90
19363;DHT22;9817;50.80926400;5.16316200;2023-05-10T13:17:54;18.60;99.90
19363;DHT22;9817;50.80926400;5.16316200;2023-05-10T13:20:20;18.70;99.90
19363;DHT22;9817;50.80926400;5.16316200;2023-05-10T13:22:45;18.60;99.90
19363;DHT22;9817;50.80926400;5.16316200;2023-05-10T13:25:11;18.80;99.90
19363;DHT22;9817;50.80926400;5.16316200;2023-05-10T13:27:40;18.80;99.90
19363;DHT22;9817;50.80926400;5.16316200;2023-05-10T13:30:09;18.70;99.90
19363;DHT22;9817;50.80926400;5.16316200;2023-05-10T13:32:36;18.80;99.90
19363;DHT22;9817;50.80926400;5.16316200;2023-05-10T13:35:03;19.10;99.90
19363;DHT22;9817;50.80926400;5.16316200;2023-05-10T13:37:29;19.20;99.90
19363;DHT22;9817;50.80926400;5.16316200;2023-05-10T13:39:55;19.10;99.90
19363;DHT22;9817;50.80926400;5.16316200;2023-05-10T13:42:22;19.10;99.90
19363;DHT22;9817;50.80926400;5.16316200;2023-05-10T13:44:48;18.50;99.90
19363;DHT22;9817;50.80926400;5.16316200;2023-05-10T13:47:13;18.40;99.90
19363;DHT22;9817;50.80926400;5.16316200;2023-05-10T13:49:39;18.50;99.90
19363;DHT22;9817;50.80926400;5.16316200;2023-05-10T13:52:05;18.80;99.90
19363;DHT22;9817;50.80926400;5.16316200;2023-05-10T13:54:34;18.60;99.90
19363;DHT22;9817;50.80926400;5.16316200;2023-05-10T13:56:59;18.80;99.90
19363;DHT22;9817;50.80926400;5.16316200;2023-05-10T13:59:25;19.20;99.90
19363;DHT22;9817;50.80926400;5.16316200;2023-05-10T14:01:51;19.50;99.90
19363;DHT22;9817;50.80926400;5.16316200;2023-05-10T14:04:17;19.50;99.90
19363;DHT22;9817;50.80926400;5.16316200;2023-05-10T14:06:42;19.50;99.90
19363;DHT22;9817;50.80926400;5.16316200;2023-05-10T14:09:08;19.50;99.90
19363;DHT22;9817;50.80926400;5.16316200;2023-05-10T14:11:34;19.50;99.90
19363;DHT22;9817;50.80926400;5.16316200;2023-05-10T14:13:59;19.30;99.90
19363;DHT22;9817;50.80926400;5.16316200;2023-05-10T14:16:25;19.30;99.90
19363;DHT22;9817;50.80926400;5.16316200;2023-05-10T14:18:52;19.00;99.90
19363;DHT22;9817;50.80926400;5.16316200;2023-05-10T14:21:17;19.20;99.90